sensor_id;sensor_type;location;lat;lon;timestamp;P1;durP1;ratioP1;P2;durP2;ratioP2
67508;SDS011;54354;44.724;11.284;2022-11-20T00:00:52;10.13;;;8.23;;
67508;SDS011;54354;44.724;11.284;2022-11-20T00:03:18;9.50;;;8.50;;
67508;SDS011;54354;44.724;11.284;2022-11-20T00:05:43;10.27;;;8.60;;
67508;SDS011;54354;44.724;11.284;2022-11-20T00:08:09;10.95;;;8.73;;
67508;SDS011;54354;44.724;11.284;2022-11-20T00:10:41;10.00;;;8.95;;
67508;SDS011;54354;44.724;11.284;2022-11-20T00:13:07;10.82;;;8.50;;
67508;SDS011;54354;44.724;11.284;2022-11-20T00:15:33;10.90;;;8.60;;
67508;SDS011;54354;44.724;11.284;2022-11-20T00:17:59;10.23;;;8.88;;
67508;SDS011;54354;44.724;11.284;2022-11-20T00:20:24;10.63;;;8.63;;
67508;SDS011;54354;44.724;11.284;2022-11-20T00:22:50;10.63;;;9.13;;
67508;SDS011;54354;44.724;11.284;2022-11-20T00:25:16;9.75;;;8.57;;
67508;SDS011;54354;44.724;11.284;2022-11-20T00:27:42;13.48;;;8.77;;
67508;SDS011;54354;44.724;11.284;2022-11-20T00:30:08;11.02;;;8.68;;
67508;SDS011;54354;44.724;11.284;2022-11-20T00:32:34;9.93;;;8.48;;
67508;SDS011;54354;44.724;11.284;2022-11-20T00:34:59;11.80;;;9.20;;
67508;SDS011;54354;44.724;11.284;2022-11-20T00:37:25;14.35;;;9.18;;
67508;SDS011;54354;44.724;11.284;2022-11-20T00:39:51;14.23;;;9.50;;
67508;SDS011;54354;44.724;11.284;2022-11-20T00:42:16;13.02;;;10.18;;
67508;SDS011;54354;44.724;11.284;2022-11-20T00:44:42;11.35;;;9.80;;
67508;SDS011;54354;44.724;11.284;2022-11-20T00:47:07;11.75;;;9.70;;
67508;SDS011;54354;44.724;11.284;2022-11-20T00:49:33;12.23;;;9.68;;
67508;SDS011;54354;44.724;11.284;2022-11-20T00:51:58;14.75;;;10.20;;
67508;SDS011;54354;44.724;11.284;2022-11-20T00:54:23;14.65;;;11.45;;
67508;SDS011;54354;44.724;11.284;2022-11-20T00:56:49;17.15;;;11.00;;
67508;SDS011;54354;44.724;11.284;2022-11-20T00:59:14;15.10;;;12.13;;
67508;SDS011;54354;44.724;11.284;2022-11-20T01:01:40;20.60;;;14.48;;
67508;SDS011;54354;44.724;11.284;2022-11-20T01:04:05;24.33;;;15.95;;
67508;SDS011;54354;44.724;11.284;2022-11-20T01:06:32;22.98;;;16.52;;
67508;SDS011;54354;44.724;11.284;2022-11-20T01:09:00;26.58;;;16.48;;
67508;SDS011;54354;44.724;11.284;2022-11-20T01:11:34;26.95;;;18.05;;
67508;SDS011;54354;44.724;11.284;2022-11-20T01:14:02;32.10;;;19.23;;
67508;SDS011;54354;44.724;11.284;2022-11-20T01:16:31;36.38;;;21.30;;
67508;SDS011;54354;44.724;11.284;2022-11-20T01:19:05;33.92;;;21.55;;
67508;SDS011;54354;44.724;11.284;2022-11-20T01:21:35;35.38;;;21.63;;
67508;SDS011;54354;44.724;11.284;2022-11-20T01:24:03;38.70;;;21.73;;
67508;SDS011;54354;44.724;11.284;2022-11-20T01:26:31;38.38;;;22.50;;
67508;SDS011;54354;44.724;11.284;2022-11-20T01:28:58;38.85;;;22.23;;
67508;SDS011;54354;44.724;11.284;2022-11-20T01:31:25;38.28;;;22.38;;
67508;SDS011;54354;44.724;11.284;2022-11-20T01:33:53;31.63;;;20.23;;
67508;SDS011;54354;44.724;11.284;2022-11-20T01:36:21;37.55;;;21.17;;
67508;SDS011;54354;44.724;11.284;2022-11-20T01:38:50;31.42;;;20.65;;
67508;SDS011;54354;44.724;11.284;2022-11-20T01:41:17;31.73;;;20.50;;
67508;SDS011;54354;44.724;11.284;2022-11-20T01:44:02;33.35;;;20.95;;
67508;SDS011;54354;44.724;11.284;2022-11-20T01:46:29;32.15;;;19.88;;
67508;SDS011;54354;44.724;11.284;2022-11-20T01:49:25;33.40;;;19.20;;
67508;SDS011;54354;44.724;11.284;2022-11-20T01:51:55;31.88;;;19.85;;
67508;SDS011;54354;44.724;11.284;2022-11-20T01:54:32;33.60;;;20.98;;
67508;SDS011;54354;44.724;11.284;2022-11-20T01:57:01;31.80;;;19.13;;
67508;SDS011;54354;44.724;11.284;2022-11-20T01:59:30;27.95;;;18.95;;
67508;SDS011;54354;44.724;11.284;2022-11-20T02:01:56;33.13;;;19.50;;
67508;SDS011;54354;44.724;11.284;2022-11-20T02:04:22;30.75;;;19.85;;
67508;SDS011;54354;44.724;11.284;2022-11-20T02:06:49;28.92;;;18.17;;
67508;SDS011;54354;44.724;11.284;2022-11-20T02:09:18;27.92;;;17.33;;
67508;SDS011;54354;44.724;11.284;2022-11-20T02:11:44;30.25;;;19.52;;
67508;SDS011;54354;44.724;11.284;2022-11-20T02:14:09;30.98;;;19.10;;
67508;SDS011;54354;44.724;11.284;2022-11-20T02:47:05;34.25;;;21.08;;
67508;SDS011;54354;44.724;11.284;2022-11-20T02:49:31;36.28;;;21.65;;
67508;SDS011;54354;44.724;11.284;2022-11-20T02:51:57;32.70;;;21.10;;
67508;SDS011;54354;44.724;11.284;2022-11-20T02:54:22;32.03;;;19.60;;
67508;SDS011;54354;44.724;11.284;2022-11-20T02:56:48;32.60;;;20.58;;
67508;SDS011;54354;44.724;11.284;2022-11-20T02:59:14;32.33;;;20.50;;
67508;SDS011;54354;44.724;11.284;2022-11-20T03:01:39;35.20;;;21.90;;
67508;SDS011;54354;44.724;11.284;2022-11-20T03:04:05;32.90;;;20.10;;
67508;SDS011;54354;44.724;11.284;2022-11-20T03:06:30;32.95;;;21.20;;
67508;SDS011;54354;44.724;11.284;2022-11-20T03:08:55;33.92;;;22.08;;
67508;SDS011;54354;44.724;11.284;2022-11-20T03:11:21;34.13;;;21.65;;
67508;SDS011;54354;44.724;11.284;2022-11-20T03:13:46;39.25;;;21.48;;
67508;SDS011;54354;44.724;11.284;2022-11-20T03:16:13;31.77;;;19.65;;
67508;SDS011;54354;44.724;11.284;2022-11-20T03:18:40;34.20;;;19.80;;
67508;SDS011;54354;44.724;11.284;2022-11-20T03:21:07;32.92;;;20.80;;
67508;SDS011;54354;44.724;11.284;2022-11-20T03:23:33;30.65;;;20.05;;
67508;SDS011;54354;44.724;11.284;2022-11-20T03:28:37;34.78;;;20.95;;
67508;SDS011;54354;44.724;11.284;2022-11-20T03:31:11;33.90;;;21.90;;
67508;SDS011;54354;44.724;11.284;2022-11-20T03:33:39;34.28;;;21.98;;
67508;SDS011;54354;44.724;11.284;2022-11-20T03:36:06;39.05;;;21.98;;
67508;SDS011;54354;44.724;11.284;2022-11-20T03:38:35;36.60;;;21.35;;
67508;SDS011;54354;44.724;11.284;2022-11-20T03:41:02;38.28;;;22.65;;
67508;SDS011;54354;44.724;11.284;2022-11-20T03:43:35;36.78;;;21.65;;
67508;SDS011;54354;44.724;11.284;2022-11-20T03:46:01;37.53;;;22.15;;
67508;SDS011;54354;44.724;11.284;2022-11-20T03:48:27;38.78;;;22.48;;
67508;SDS011;54354;44.724;11.284;2022-11-20T03:50:53;36.95;;;22.45;;
67508;SDS011;54354;44.724;11.284;2022-11-20T03:53:32;37.65;;;22.50;;
67508;SDS011;54354;44.724;11.284;2022-11-20T03:55:57;35.20;;;22.10;;
67508;SDS011;54354;44.724;11.284;2022-11-20T03:58:22;36.88;;;22.15;;
67508;SDS011;54354;44.724;11.284;2022-11-20T04:00:48;39.85;;;22.33;;
67508;SDS011;54354;44.724;11.284;2022-11-20T04:03:13;36.88;;;22.23;;
67508;SDS011;54354;44.724;11.284;2022-11-20T04:05:39;35.22;;;21.30;;
67508;SDS011;54354;44.724;11.284;2022-11-20T04:08:04;39.00;;;22.20;;
67508;SDS011;54354;44.724;11.284;2022-11-20T04:10:30;39.22;;;23.15;;
67508;SDS011;54354;44.724;11.284;2022-11-20T04:12:55;37.88;;;23.08;;
67508;SDS011;54354;44.724;11.284;2022-11-20T04:15:21;38.70;;;23.63;;
67508;SDS011;54354;44.724;11.284;2022-11-20T04:17:46;38.05;;;22.50;;
67508;SDS011;54354;44.724;11.284;2022-11-20T04:20:12;38.25;;;23.73;;
67508;SDS011;54354;44.724;11.284;2022-11-20T04:22:37;39.92;;;23.48;;
67508;SDS011;54354;44.724;11.284;2022-11-20T04:25:03;39.13;;;23.70;;
67508;SDS011;54354;44.724;11.284;2022-11-20T04:27:30;42.35;;;23.90;;
67508;SDS011;54354;44.724;11.284;2022-11-20T04:29:55;40.55;;;24.25;;
67508;SDS011;54354;44.724;11.284;2022-11-20T04:32:21;40.63;;;23.27;;
67508;SDS011;54354;44.724;11.284;2022-11-20T04:34:46;44.33;;;24.35;;
67508;SDS011;54354;44.724;11.284;2022-11-20T04:37:12;40.25;;;22.63;;
67508;SDS011;54354;44.724;11.284;2022-11-20T04:39:37;42.63;;;24.00;;
67508;SDS011;54354;44.724;11.284;2022-11-20T04:42:03;42.30;;;23.95;;
67508;SDS011;54354;44.724;11.284;2022-11-20T04:45:06;39.38;;;23.83;;
67508;SDS011;54354;44.724;11.284;2022-11-20T04:47:32;42.28;;;23.17;;
67508;SDS011;54354;44.724;11.284;2022-11-20T04:49:58;40.28;;;24.23;;
67508;SDS011;54354;44.724;11.284;2022-11-20T04:52:23;43.22;;;23.92;;
67508;SDS011;54354;44.724;11.284;2022-11-20T04:54:49;38.40;;;22.30;;
67508;SDS011;54354;44.724;11.284;2022-11-20T04:57:17;43.75;;;24.88;;
67508;SDS011;54354;44.724;11.284;2022-11-20T04:59:44;42.60;;;24.05;;
67508;SDS011;54354;44.724;11.284;2022-11-20T05:02:11;42.83;;;24.30;;
67508;SDS011;54354;44.724;11.284;2022-11-20T05:04:36;40.17;;;23.23;;
67508;SDS011;54354;44.724;11.284;2022-11-20T05:07:02;47.47;;;23.83;;
67508;SDS011;54354;44.724;11.284;2022-11-20T05:09:28;44.15;;;24.58;;
67508;SDS011;54354;44.724;11.284;2022-11-20T05:11:53;48.13;;;26.50;;
67508;SDS011;54354;44.724;11.284;2022-11-20T05:14:19;45.72;;;25.75;;
67508;SDS011;54354;44.724;11.284;2022-11-20T05:16:44;56.42;;;26.05;;
67508;SDS011;54354;44.724;11.284;2022-11-20T05:19:09;48.28;;;26.13;;
67508;SDS011;54354;44.724;11.284;2022-11-20T05:21:35;44.38;;;26.15;;
67508;SDS011;54354;44.724;11.284;2022-11-20T05:24:00;44.90;;;26.02;;
67508;SDS011;54354;44.724;11.284;2022-11-20T05:26:26;50.13;;;26.90;;
67508;SDS011;54354;44.724;11.284;2022-11-20T05:28:51;49.47;;;26.55;;
67508;SDS011;54354;44.724;11.284;2022-11-20T05:31:19;51.40;;;27.23;;
67508;SDS011;54354;44.724;11.284;2022-11-20T05:33:46;51.63;;;26.40;;
67508;SDS011;54354;44.724;11.284;2022-11-20T05:36:12;51.63;;;27.58;;
67508;SDS011;54354;44.724;11.284;2022-11-20T05:38:39;51.22;;;27.95;;
67508;SDS011;54354;44.724;11.284;2022-11-20T05:41:06;52.47;;;28.08;;
67508;SDS011;54354;44.724;11.284;2022-11-20T05:43:37;51.83;;;27.40;;
67508;SDS011;54354;44.724;11.284;2022-11-20T05:46:04;50.38;;;28.27;;
67508;SDS011;54354;44.724;11.284;2022-11-20T05:48:31;49.08;;;28.52;;
67508;SDS011;54354;44.724;11.284;2022-11-20T05:50:57;50.78;;;27.85;;
67508;SDS011;54354;44.724;11.284;2022-11-20T05:53:24;52.42;;;28.13;;
67508;SDS011;54354;44.724;11.284;2022-11-20T05:55:59;50.60;;;28.02;;
67508;SDS011;54354;44.724;11.284;2022-11-20T05:58:26;50.60;;;26.48;;
67508;SDS011;54354;44.724;11.284;2022-11-20T06:00:52;51.60;;;28.55;;
67508;SDS011;54354;44.724;11.284;2022-11-20T06:03:18;49.55;;;27.08;;
67508;SDS011;54354;44.724;11.284;2022-11-20T06:05:44;52.53;;;28.00;;
67508;SDS011;54354;44.724;11.284;2022-11-20T06:08:09;56.40;;;29.67;;
67508;SDS011;54354;44.724;11.284;2022-11-20T06:10:35;49.97;;;27.05;;
67508;SDS011;54354;44.724;11.284;2022-11-20T06:13:00;51.20;;;28.80;;
67508;SDS011;54354;44.724;11.284;2022-11-20T06:15:25;52.88;;;28.45;;
67508;SDS011;54354;44.724;11.284;2022-11-20T06:17:52;53.83;;;29.38;;
67508;SDS011;54354;44.724;11.284;2022-11-20T06:20:18;51.58;;;27.92;;
67508;SDS011;54354;44.724;11.284;2022-11-20T06:22:44;51.53;;;26.92;;
67508;SDS011;54354;44.724;11.284;2022-11-20T06:25:09;52.08;;;29.45;;
67508;SDS011;54354;44.724;11.284;2022-11-20T06:27:35;51.80;;;27.80;;
67508;SDS011;54354;44.724;11.284;2022-11-20T06:30:00;52.88;;;28.48;;
67508;SDS011;54354;44.724;11.284;2022-11-20T06:32:26;50.58;;;29.08;;
67508;SDS011;54354;44.724;11.284;2022-11-20T06:34:51;54.92;;;29.33;;
67508;SDS011;54354;44.724;11.284;2022-11-20T06:37:17;58.45;;;30.65;;
67508;SDS011;54354;44.724;11.284;2022-11-20T06:39:42;56.78;;;29.80;;
67508;SDS011;54354;44.724;11.284;2022-11-20T06:42:08;57.80;;;29.83;;
67508;SDS011;54354;44.724;11.284;2022-11-20T06:44:33;62.35;;;31.15;;
67508;SDS011;54354;44.724;11.284;2022-11-20T06:46:59;56.90;;;30.10;;
67508;SDS011;54354;44.724;11.284;2022-11-20T06:49:24;56.10;;;29.75;;
67508;SDS011;54354;44.724;11.284;2022-11-20T06:51:50;50.25;;;28.98;;
67508;SDS011;54354;44.724;11.284;2022-11-20T06:54:16;60.03;;;29.95;;
67508;SDS011;54354;44.724;11.284;2022-11-20T06:56:41;55.63;;;29.27;;
67508;SDS011;54354;44.724;11.284;2022-11-20T06:59:07;57.92;;;30.67;;
67508;SDS011;54354;44.724;11.284;2022-11-20T07:01:33;56.80;;;29.73;;
67508;SDS011;54354;44.724;11.284;2022-11-20T07:03:58;57.92;;;30.65;;
67508;SDS011;54354;44.724;11.284;2022-11-20T07:06:24;56.78;;;30.13;;
67508;SDS011;54354;44.724;11.284;2022-11-20T07:08:52;51.58;;;29.35;;
67508;SDS011;54354;44.724;11.284;2022-11-20T07:11:18;53.22;;;29.35;;
67508;SDS011;54354;44.724;11.284;2022-11-20T07:13:43;51.75;;;29.02;;
67508;SDS011;54354;44.724;11.284;2022-11-20T07:16:09;55.85;;;30.67;;
67508;SDS011;54354;44.724;11.284;2022-11-20T07:18:34;53.00;;;29.63;;
67508;SDS011;54354;44.724;11.284;2022-11-20T07:21:04;62.17;;;31.58;;
67508;SDS011;54354;44.724;11.284;2022-11-20T07:23:32;57.78;;;31.45;;
67508;SDS011;54354;44.724;11.284;2022-11-20T07:25:57;59.38;;;31.20;;
67508;SDS011;54354;44.724;11.284;2022-11-20T07:28:23;54.83;;;30.40;;
67508;SDS011;54354;44.724;11.284;2022-11-20T07:30:52;58.17;;;31.65;;
67508;SDS011;54354;44.724;11.284;2022-11-20T07:33:18;61.90;;;31.45;;
67508;SDS011;54354;44.724;11.284;2022-11-20T07:35:44;60.20;;;31.83;;
67508;SDS011;54354;44.724;11.284;2022-11-20T07:38:10;64.50;;;33.38;;
67508;SDS011;54354;44.724;11.284;2022-11-20T07:40:36;63.60;;;30.85;;
67508;SDS011;54354;44.724;11.284;2022-11-20T07:43:01;62.58;;;32.20;;
67508;SDS011;54354;44.724;11.284;2022-11-20T07:45:27;63.50;;;32.97;;
67508;SDS011;54354;44.724;11.284;2022-11-20T07:47:52;57.33;;;30.67;;
67508;SDS011;54354;44.724;11.284;2022-11-20T07:50:18;66.20;;;32.63;;
67508;SDS011;54354;44.724;11.284;2022-11-20T07:52:44;60.80;;;32.42;;
67508;SDS011;54354;44.724;11.284;2022-11-20T07:55:10;58.10;;;31.75;;
67508;SDS011;54354;44.724;11.284;2022-11-20T07:57:35;61.50;;;33.25;;
67508;SDS011;54354;44.724;11.284;2022-11-20T08:00:02;64.15;;;34.58;;
67508;SDS011;54354;44.724;11.284;2022-11-20T08:02:40;66.68;;;34.85;;
67508;SDS011;54354;44.724;11.284;2022-11-20T08:05:06;73.38;;;37.03;;
67508;SDS011;54354;44.724;11.284;2022-11-20T08:07:39;68.05;;;34.60;;
67508;SDS011;54354;44.724;11.284;2022-11-20T08:10:06;65.57;;;34.83;;
67508;SDS011;54354;44.724;11.284;2022-11-20T08:12:33;64.38;;;34.85;;
67508;SDS011;54354;44.724;11.284;2022-11-20T08:15:18;65.82;;;34.13;;
67508;SDS011;54354;44.724;11.284;2022-11-20T08:17:43;65.38;;;35.53;;
67508;SDS011;54354;44.724;11.284;2022-11-20T08:20:09;66.43;;;33.90;;
67508;SDS011;54354;44.724;11.284;2022-11-20T08:22:35;63.80;;;34.05;;
67508;SDS011;54354;44.724;11.284;2022-11-20T08:25:01;66.20;;;34.83;;
67508;SDS011;54354;44.724;11.284;2022-11-20T08:27:26;62.80;;;34.67;;
67508;SDS011;54354;44.724;11.284;2022-11-20T08:29:52;61.83;;;33.25;;
67508;SDS011;54354;44.724;11.284;2022-11-20T08:32:18;62.67;;;34.05;;
67508;SDS011;54354;44.724;11.284;2022-11-20T08:34:43;67.40;;;34.60;;
67508;SDS011;54354;44.724;11.284;2022-11-20T08:37:09;65.18;;;35.55;;
67508;SDS011;54354;44.724;11.284;2022-11-20T08:39:35;64.63;;;33.80;;
67508;SDS011;54354;44.724;11.284;2022-11-20T08:42:00;61.35;;;34.35;;
67508;SDS011;54354;44.724;11.284;2022-11-20T08:44:26;61.35;;;34.45;;
67508;SDS011;54354;44.724;11.284;2022-11-20T08:46:51;66.00;;;34.67;;
67508;SDS011;54354;44.724;11.284;2022-11-20T08:49:16;68.93;;;34.45;;
67508;SDS011;54354;44.724;11.284;2022-11-20T08:51:43;66.35;;;34.92;;
67508;SDS011;54354;44.724;11.284;2022-11-20T08:54:08;63.28;;;35.72;;
67508;SDS011;54354;44.724;11.284;2022-11-20T08:56:34;60.10;;;33.45;;
67508;SDS011;54354;44.724;11.284;2022-11-20T08:58:59;61.28;;;34.40;;
67508;SDS011;54354;44.724;11.284;2022-11-20T09:01:25;60.28;;;34.22;;
67508;SDS011;54354;44.724;11.284;2022-11-20T09:03:51;65.78;;;35.20;;
67508;SDS011;54354;44.724;11.284;2022-11-20T09:06:17;63.10;;;34.95;;
67508;SDS011;54354;44.724;11.284;2022-11-20T09:08:43;64.03;;;35.35;;
67508;SDS011;54354;44.724;11.284;2022-11-20T09:11:09;61.65;;;35.08;;
67508;SDS011;54354;44.724;11.284;2022-11-20T09:13:35;64.18;;;34.33;;
67508;SDS011;54354;44.724;11.284;2022-11-20T09:16:05;61.30;;;35.28;;
67508;SDS011;54354;44.724;11.284;2022-11-20T09:18:33;61.03;;;34.22;;
67508;SDS011;54354;44.724;11.284;2022-11-20T09:21:02;63.67;;;36.95;;
67508;SDS011;54354;44.724;11.284;2022-11-20T09:23:35;63.08;;;35.10;;
67508;SDS011;54354;44.724;11.284;2022-11-20T09:26:10;64.90;;;36.28;;
67508;SDS011;54354;44.724;11.284;2022-11-20T09:28:37;62.05;;;35.33;;
67508;SDS011;54354;44.724;11.284;2022-11-20T09:31:11;68.18;;;36.97;;
67508;SDS011;54354;44.724;11.284;2022-11-20T09:33:44;68.15;;;38.15;;
67508;SDS011;54354;44.724;11.284;2022-11-20T09:36:10;63.33;;;35.28;;
67508;SDS011;54354;44.724;11.284;2022-11-20T09:38:35;67.00;;;36.85;;
67508;SDS011;54354;44.724;11.284;2022-11-20T09:41:04;67.25;;;35.90;;
67508;SDS011;54354;44.724;11.284;2022-11-20T09:46:37;60.72;;;34.00;;
67508;SDS011;54354;44.724;11.284;2022-11-20T09:51:58;67.07;;;35.33;;
67508;SDS011;54354;44.724;11.284;2022-11-20T09:54:29;66.43;;;36.20;;
67508;SDS011;54354;44.724;11.284;2022-11-20T09:56:59;67.10;;;35.30;;
67508;SDS011;54354;44.724;11.284;2022-11-20T10:02:08;59.50;;;35.17;;
67508;SDS011;54354;44.724;11.284;2022-11-20T10:04:42;71.75;;;39.60;;
67508;SDS011;54354;44.724;11.284;2022-11-20T10:10:01;59.78;;;35.10;;
67508;SDS011;54354;44.724;11.284;2022-11-20T10:12:31;63.05;;;38.08;;
67508;SDS011;54354;44.724;11.284;2022-11-20T10:15:03;64.70;;;36.28;;
67508;SDS011;54354;44.724;11.284;2022-11-20T10:25:56;56.88;;;33.35;;
67508;SDS011;54354;44.724;11.284;2022-11-20T10:31:37;59.10;;;34.33;;
67508;SDS011;54354;44.724;11.284;2022-11-20T10:37:10;55.00;;;33.17;;
67508;SDS011;54354;44.724;11.284;2022-11-20T10:42:11;57.28;;;33.72;;
67508;SDS011;54354;44.724;11.284;2022-11-20T10:44:43;62.95;;;34.08;;
67508;SDS011;54354;44.724;11.284;2022-11-20T10:47:26;55.88;;;34.90;;
67508;SDS011;54354;44.724;11.284;2022-11-20T10:49:55;59.38;;;34.83;;
67508;SDS011;54354;44.724;11.284;2022-11-20T10:57:24;55.08;;;33.70;;
67508;SDS011;54354;44.724;11.284;2022-11-20T11:02:35;53.35;;;33.92;;
67508;SDS011;54354;44.724;11.284;2022-11-20T11:05:10;56.28;;;34.83;;
67508;SDS011;54354;44.724;11.284;2022-11-20T11:07:42;58.85;;;33.85;;
67508;SDS011;54354;44.724;11.284;2022-11-20T11:10:18;57.25;;;33.33;;
67508;SDS011;54354;44.724;11.284;2022-11-20T11:12:46;54.28;;;31.58;;
67508;SDS011;54354;44.724;11.284;2022-11-20T11:15:26;53.43;;;32.33;;
67508;SDS011;54354;44.724;11.284;2022-11-20T11:17:53;53.38;;;32.13;;
67508;SDS011;54354;44.724;11.284;2022-11-20T11:20:19;58.10;;;34.15;;
67508;SDS011;54354;44.724;11.284;2022-11-20T11:22:48;55.03;;;32.40;;
67508;SDS011;54354;44.724;11.284;2022-11-20T11:25:21;51.67;;;31.95;;
67508;SDS011;54354;44.724;11.284;2022-11-20T11:27:47;49.80;;;31.63;;
67508;SDS011;54354;44.724;11.284;2022-11-20T11:30:15;52.90;;;30.17;;
67508;SDS011;54354;44.724;11.284;2022-11-20T11:32:42;48.67;;;31.15;;
67508;SDS011;54354;44.724;11.284;2022-11-20T11:35:23;45.90;;;29.33;;
67508;SDS011;54354;44.724;11.284;2022-11-20T11:37:51;48.17;;;30.98;;
67508;SDS011;54354;44.724;11.284;2022-11-20T11:40:19;50.38;;;31.02;;
67508;SDS011;54354;44.724;11.284;2022-11-20T11:42:49;53.20;;;32.03;;
67508;SDS011;54354;44.724;11.284;2022-11-20T11:45:19;52.22;;;30.63;;
67508;SDS011;54354;44.724;11.284;2022-11-20T11:47:46;49.20;;;31.40;;
67508;SDS011;54354;44.724;11.284;2022-11-20T11:50:21;48.45;;;30.33;;
67508;SDS011;54354;44.724;11.284;2022-11-20T12:00:54;47.95;;;28.75;;
67508;SDS011;54354;44.724;11.284;2022-11-20T12:03:40;43.70;;;27.20;;
67508;SDS011;54354;44.724;11.284;2022-11-20T12:06:13;42.55;;;27.83;;
67508;SDS011;54354;44.724;11.284;2022-11-20T12:11:29;38.63;;;24.42;;
67508;SDS011;54354;44.724;11.284;2022-11-20T12:14:04;44.70;;;25.58;;
67508;SDS011;54354;44.724;11.284;2022-11-20T12:16:39;39.45;;;26.08;;
67508;SDS011;54354;44.724;11.284;2022-11-20T12:19:10;42.60;;;25.83;;
67508;SDS011;54354;44.724;11.284;2022-11-20T12:37:51;27.80;;;18.63;;
67508;SDS011;54354;44.724;11.284;2022-11-20T12:40:34;25.20;;;17.02;;
67508;SDS011;54354;44.724;11.284;2022-11-20T12:46:12;27.45;;;17.13;;
67508;SDS011;54354;44.724;11.284;2022-11-20T12:51:43;24.85;;;16.05;;
67508;SDS011;54354;44.724;11.284;2022-11-20T12:54:32;25.50;;;17.37;;
67508;SDS011;54354;44.724;11.284;2022-11-20T13:07:18;22.98;;;14.20;;
67508;SDS011;54354;44.724;11.284;2022-11-20T13:09:49;20.42;;;13.10;;
67508;SDS011;54354;44.724;11.284;2022-11-20T13:12:29;21.30;;;14.23;;
67508;SDS011;54354;44.724;11.284;2022-11-20T13:15:08;24.92;;;15.75;;
67508;SDS011;54354;44.724;11.284;2022-11-20T13:17:45;26.25;;;16.90;;
67508;SDS011;54354;44.724;11.284;2022-11-20T13:20:17;25.00;;;16.00;;
67508;SDS011;54354;44.724;11.284;2022-11-20T13:25:29;24.23;;;15.48;;
67508;SDS011;54354;44.724;11.284;2022-11-20T13:28:01;27.13;;;15.52;;
67508;SDS011;54354;44.724;11.284;2022-11-20T13:30:30;22.27;;;15.13;;
67508;SDS011;54354;44.724;11.284;2022-11-20T13:33:43;20.05;;;13.43;;
67508;SDS011;54354;44.724;11.284;2022-11-20T13:35:58;20.85;;;13.48;;
67508;SDS011;54354;44.724;11.284;2022-11-20T13:38:25;27.60;;;19.50;;
67508;SDS011;54354;44.724;11.284;2022-11-20T13:40:52;25.45;;;16.45;;
67508;SDS011;54354;44.724;11.284;2022-11-20T13:43:40;19.75;;;12.82;;
67508;SDS011;54354;44.724;11.284;2022-11-20T13:46:40;17.20;;;10.90;;
67508;SDS011;54354;44.724;11.284;2022-11-20T13:51:52;19.30;;;9.48;;
67508;SDS011;54354;44.724;11.284;2022-11-20T13:57:23;14.48;;;9.07;;
67508;SDS011;54354;44.724;11.284;2022-11-20T14:02:23;11.63;;;7.30;;
67508;SDS011;54354;44.724;11.284;2022-11-20T14:04:52;13.15;;;8.13;;
67508;SDS011;54354;44.724;11.284;2022-11-20T14:07:20;13.60;;;8.07;;
67508;SDS011;54354;44.724;11.284;2022-11-20T14:09:50;12.80;;;8.50;;
67508;SDS011;54354;44.724;11.284;2022-11-20T14:12:19;16.23;;;10.13;;
67508;SDS011;54354;44.724;11.284;2022-11-20T14:17:19;17.98;;;10.55;;
67508;SDS011;54354;44.724;11.284;2022-11-20T14:19:50;15.65;;;10.23;;
67508;SDS011;54354;44.724;11.284;2022-11-20T14:22:24;15.15;;;9.60;;
67508;SDS011;54354;44.724;11.284;2022-11-20T14:25:01;16.05;;;9.88;;
67508;SDS011;54354;44.724;11.284;2022-11-20T14:27:32;15.70;;;9.95;;
67508;SDS011;54354;44.724;11.284;2022-11-20T14:30:00;16.70;;;10.77;;
67508;SDS011;54354;44.724;11.284;2022-11-20T14:32:27;17.85;;;10.63;;
67508;SDS011;54354;44.724;11.284;2022-11-20T14:35:02;18.25;;;10.90;;
67508;SDS011;54354;44.724;11.284;2022-11-20T14:37:33;17.23;;;11.10;;
67508;SDS011;54354;44.724;11.284;2022-11-20T14:40:05;18.70;;;10.73;;
67508;SDS011;54354;44.724;11.284;2022-11-20T14:42:47;16.58;;;10.95;;
67508;SDS011;54354;44.724;11.284;2022-11-20T14:45:13;18.55;;;11.38;;
67508;SDS011;54354;44.724;11.284;2022-11-20T14:47:39;17.27;;;10.80;;
67508;SDS011;54354;44.724;11.284;2022-11-20T14:50:08;22.85;;;11.13;;
67508;SDS011;54354;44.724;11.284;2022-11-20T14:52:49;18.05;;;11.85;;
67508;SDS011;54354;44.724;11.284;2022-11-20T14:55:32;19.10;;;11.93;;
67508;SDS011;54354;44.724;11.284;2022-11-20T14:58:04;17.20;;;11.57;;
67508;SDS011;54354;44.724;11.284;2022-11-20T15:00:53;18.23;;;11.73;;
67508;SDS011;54354;44.724;11.284;2022-11-20T15:03:30;24.55;;;15.93;;
67508;SDS011;54354;44.724;11.284;2022-11-20T15:06:03;20.27;;;13.80;;
67508;SDS011;54354;44.724;11.284;2022-11-20T15:08:31;18.70;;;12.93;;
67508;SDS011;54354;44.724;11.284;2022-11-20T15:10:56;23.55;;;13.10;;
67508;SDS011;54354;44.724;11.284;2022-11-20T15:15:55;23.35;;;14.48;;
67508;SDS011;54354;44.724;11.284;2022-11-20T15:18:23;28.90;;;17.00;;
67508;SDS011;54354;44.724;11.284;2022-11-20T15:20:53;25.75;;;15.50;;
67508;SDS011;54354;44.724;11.284;2022-11-20T15:23:21;25.20;;;13.65;;
67508;SDS011;54354;44.724;11.284;2022-11-20T15:25:46;22.50;;;13.73;;
67508;SDS011;54354;44.724;11.284;2022-11-20T15:28:21;26.50;;;14.05;;
67508;SDS011;54354;44.724;11.284;2022-11-20T15:30:51;22.80;;;14.30;;
67508;SDS011;54354;44.724;11.284;2022-11-20T15:33:18;24.13;;;13.85;;
67508;SDS011;54354;44.724;11.284;2022-11-20T15:35:44;21.20;;;14.10;;
67508;SDS011;54354;44.724;11.284;2022-11-20T15:38:09;23.98;;;14.43;;
67508;SDS011;54354;44.724;11.284;2022-11-20T15:40:35;25.70;;;14.30;;
67508;SDS011;54354;44.724;11.284;2022-11-20T15:43:01;25.45;;;14.85;;
67508;SDS011;54354;44.724;11.284;2022-11-20T15:48:09;21.15;;;13.48;;
67508;SDS011;54354;44.724;11.284;2022-11-20T15:50:47;22.50;;;13.65;;
67508;SDS011;54354;44.724;11.284;2022-11-20T15:53:17;20.65;;;12.93;;
67508;SDS011;54354;44.724;11.284;2022-11-20T15:55:43;22.38;;;12.95;;
67508;SDS011;54354;44.724;11.284;2022-11-20T15:58:08;24.92;;;14.07;;
67508;SDS011;54354;44.724;11.284;2022-11-20T16:00:34;25.90;;;14.80;;
67508;SDS011;54354;44.724;11.284;2022-11-20T16:02:59;21.23;;;13.57;;
67508;SDS011;54354;44.724;11.284;2022-11-20T16:05:29;23.05;;;14.27;;
67508;SDS011;54354;44.724;11.284;2022-11-20T16:07:55;22.45;;;13.55;;
67508;SDS011;54354;44.724;11.284;2022-11-20T16:10:21;19.67;;;13.15;;
67508;SDS011;54354;44.724;11.284;2022-11-20T16:12:47;27.02;;;14.23;;
67508;SDS011;54354;44.724;11.284;2022-11-20T16:15:32;24.40;;;14.40;;
67508;SDS011;54354;44.724;11.284;2022-11-20T16:18:17;26.83;;;15.10;;
67508;SDS011;54354;44.724;11.284;2022-11-20T16:20:45;26.75;;;15.20;;
67508;SDS011;54354;44.724;11.284;2022-11-20T16:23:11;23.63;;;14.70;;
67508;SDS011;54354;44.724;11.284;2022-11-20T16:25:37;25.00;;;15.75;;
67508;SDS011;54354;44.724;11.284;2022-11-20T16:28:02;28.25;;;16.33;;
67508;SDS011;54354;44.724;11.284;2022-11-20T16:30:28;28.67;;;16.98;;